TFM - Tactical Decision Aid (Experimental) INFO Settings
ID: Runway Winds: CIG/VIS Threshold: METAR Board: Map:

KATL - Atlanta-Hartsfield Jackson Intl

Updated at: 1500 UTC 26 Mar 2017
Latest TAF at: 1310 UTC 26 Mar 2017

TAF Board

Time1452Z26/15Z26/16Z26/17Z26/18Z26/19Z26/20Z26/21Z26/22Z26/23Z27/00Z27/01Z27/02Z27/03Z
TypeOBSPRVLPRVLPRVLPRVLPRVL
  [TEMP]  
PRVL
  [TEMP]  
PRVL
  [TEMP]  
PRVL
  [TEMP]  
PRVLPRVLPRVLPRVLPRVL
VIS10>6>6>6>6>6
  [5]  
>6
  [5]  
>6
  [5]  
>6
  [5]  
>6>6>6>6>6
CIG--2525253535
  [35]  
35
  [35]  
35
  [35]  
35
  [35]  
3550505050
CoverFEWBKNBKNBKNBKNBKN
  [BKN]  
BKN
  [BKN]  
BKN
  [BKN]  
BKN
  [BKN]  
BKNBKNBKNBKNBKN
FltCatVFRMVFRMVFRMVFRVFRVFR
  [MVFR]  
VFR
  [MVFR]  
VFR
  [MVFR]  
VFR
  [MVFR]  
VFRVFRVFRVFRVFR
WX--------VCSHVCSH
  [TSRA]  
VCSH
  [TSRA]  
VCSH
  [TSRA]  
VCSH
  [TSRA]  
VCSH--------
WDir170190190190190190
[190]
190
[190]
190
[190]
190
[190]
190170170170170
WSpd121010101010
  [10]  
10
  [10]  
10
  [10]  
10
  [10]  
106666
WGst------------
  [--]  
--
  [--]  
--
  [--]  
--
  [--]  
----------
TAF
KATL 261310Z 2613/2718 16007KT P6SM FEW060
  FM261500 19010KT P6SM BKN025
  FM261800 19010KT P6SM VCSH BKN035
  TEMPO 2619/2623 5SM TSRA BKN035CB
  FM270000 17006KT P6SM BKN050
  FM270500 19005KT P6SM BKN035
  FM270900 21005KT 5SM BR BKN020


METAR
KATL 261452Z 17012KT 10SM FEW020 FEW150 19/15 A3013 RMK AO2 SLP198 T01940150 51012 $
KATL 261352Z 16009KT 10SM FEW010 FEW055 SCT150 17/16 A3012 RMK AO2 SLP196 T01720156 $

TAF/METAR Board Legend

Potential Impact
  None Marginal Slight Moderate High
Visibility (sm) >5 3≤X≤5 1≤X<3 0.5≤X<1 <0.5
Ceiling (100 ft) >30 10≤X≤30 4≤X<10 2≤X<4 <2
Wind Speed (kt) <10 10≤X<20 20≤X<30 ≥30
Wind Gust (kt) <15 15≤X<25 25≤X<35 ≥35
Weather No Wx Reported VCTS -TS,-FZRA TS,FZRA +TS,+FZRA



Page loaded:  15:00 UTC  |   08:00 AM Pacific  |   09:00 AM Mountain  |   10:00 AM Central  |   11:00 AM Eastern

 

ADVISORIES

FORECASTS

FORECASTS

OBSERVATIONS

USER TOOLS

ABOUT US